TS45 weather

Gulfcoast Heliport
Pearland, Texas, United States

Public forecast

Using degrees Fahrenheit for public forecast. Weather courtesy of forecast.io.

METAR (pilot weather report)

Closest report is William P Hobby Airport, 5.0 nm (9.3 km) NE. Retrieved 2019/09/23 14:56 UTC (23 minutes ago):

KHOU 231456Z 16005KT 10SM SCT015 SCT025 BKN250 29/24 A3004 RMK AO2 T02940244

TAF (pilot weather forecast)

Closest forecast is William P Hobby Airport, 5.0 nm (9.3 km) NE. Retrieved 2019/09/23 12:22 UTC (3 hours ago):

TAF KHOU 231120Z 2312/2412 VRB04KT P6SM FEW010 SCT020 FM231600 17006KT P6SM VCSH SCT020 BKN035 TEMPO 2316/2320 TSRA BKN030CB FM232100 15008KT P6SM VCSH SCT030 BKN250 FM240100 14004KT P6SM SCT020 BKN250